createdAt,value
2018-02-06T00:00:21.793Z,1009.16
2018-02-06T00:01:21.858Z,1009.17
2018-02-06T00:02:21.922Z,1009.17
2018-02-06T00:03:21.989Z,1009.17
2018-02-06T00:04:22.054Z,1009.18
2018-02-06T00:05:22.119Z,1009.15
2018-02-06T00:06:22.185Z,1009.17
2018-02-06T00:07:22.250Z,1009.11
2018-02-06T00:08:22.316Z,1009.07
2018-02-06T00:09:22.381Z,1009.05
2018-02-06T00:10:22.445Z,1008.97
2018-02-06T00:11:22.511Z,1008.99
2018-02-06T00:12:22.578Z,1008.96
2018-02-06T00:13:22.643Z,1008.96
2018-02-06T00:14:22.709Z,1008.92
2018-02-06T00:15:22.772Z,1008.90
2018-02-06T00:16:22.838Z,1008.90
2018-02-06T00:17:22.905Z,1008.92
2018-02-06T00:18:22.968Z,1008.89
2018-02-06T00:19:23.034Z,1008.88
2018-02-06T00:20:23.099Z,1008.87
2018-02-06T00:21:23.166Z,1008.87
2018-02-06T00:22:23.230Z,1008.91
2018-02-06T00:23:23.295Z,1008.80
2018-02-06T00:24:23.361Z,1008.83
2018-02-06T00:25:23.427Z,1008.77
2018-02-06T00:26:23.492Z,1008.78
2018-02-06T00:27:23.558Z,1008.79
2018-02-06T00:28:23.623Z,1008.74
2018-02-06T00:29:23.688Z,1008.80
2018-02-06T00:30:23.753Z,1008.79
2018-02-06T00:31:23.818Z,1008.78
2018-02-06T00:32:23.884Z,1008.73
2018-02-06T00:33:23.950Z,1008.73
2018-02-06T00:34:24.016Z,1008.70
2018-02-06T00:35:24.079Z,1008.69
2018-02-06T00:36:24.147Z,1008.66
2018-02-06T00:37:24.210Z,1008.67
2018-02-06T00:38:24.276Z,1008.62
2018-02-06T00:39:24.341Z,1008.59
2018-02-06T00:40:24.407Z,1008.59
2018-02-06T00:41:24.473Z,1008.55
2018-02-06T00:42:24.538Z,1008.47
2018-02-06T00:43:24.603Z,1008.39
2018-02-06T00:44:24.670Z,1008.40
2018-02-06T00:45:24.736Z,1008.35
2018-02-06T00:46:24.800Z,1008.33
2018-02-06T00:47:24.864Z,1008.28
2018-02-06T00:48:24.936Z,1008.28
2018-02-06T00:49:24.996Z,1008.28
2018-02-06T00:50:25.060Z,1008.25
2018-02-06T00:51:25.126Z,1008.21
2018-02-06T00:52:25.191Z,1008.24
2018-02-06T00:53:25.258Z,1008.18
2018-02-06T00:54:25.321Z,1008.17
2018-02-06T00:55:25.387Z,1008.10
2018-02-06T00:56:25.452Z,1008.09
2018-02-06T00:57:25.519Z,1008.07
2018-02-06T00:58:25.586Z,1008.06
2018-02-06T00:59:25.648Z,1008.09
2018-02-06T01:00:25.714Z,1008.04
2018-02-06T01:01:25.782Z,1008.02
2018-02-06T01:02:25.845Z,1008.03
2018-02-06T01:03:25.910Z,1008.01
2018-02-06T01:04:25.975Z,1008.04
2018-02-06T01:05:26.041Z,1008.03
2018-02-06T01:06:26.107Z,1008.06
2018-02-06T01:07:26.170Z,1008.03
2018-02-06T01:08:26.236Z,1008.03
2018-02-06T01:09:26.303Z,1008.01
2018-02-06T01:10:26.367Z,1008.01
2018-02-06T01:11:26.433Z,1008.01
2018-02-06T01:12:26.497Z,1007.96
2018-02-06T01:13:26.563Z,1008.00
2018-02-06T01:14:26.627Z,1007.98
2018-02-06T01:15:26.692Z,1007.98
2018-02-06T01:16:26.761Z,1007.98
2018-02-06T01:17:26.824Z,1007.98
2018-02-06T01:18:26.890Z,1007.97
2018-02-06T01:19:26.955Z,1007.95
2018-02-06T01:20:27.021Z,1007.91
2018-02-06T01:21:27.086Z,1007.91
2018-02-06T01:22:27.150Z,1007.89
2018-02-06T01:23:27.216Z,1007.90
2018-02-06T01:24:27.282Z,1007.89
2018-02-06T01:25:27.349Z,1007.85
2018-02-06T01:26:27.562Z,1007.84
2018-02-06T01:27:27.478Z,1007.83
2018-02-06T01:28:27.542Z,1007.82
2018-02-06T01:29:27.609Z,1007.82
2018-02-06T01:30:27.673Z,1007.79
2018-02-06T01:31:27.739Z,1007.76
2018-02-06T01:32:27.804Z,1007.76
2018-02-06T01:33:27.869Z,1007.72
2018-02-06T01:34:27.934Z,1007.74
2018-02-06T01:35:28.000Z,1007.72
2018-02-06T01:36:28.066Z,1007.75
2018-02-06T01:37:28.131Z,1007.73
2018-02-06T01:38:28.194Z,1007.69
2018-02-06T01:39:28.260Z,1007.67
2018-02-06T01:40:28.327Z,1007.69
2018-02-06T01:41:28.543Z,1007.67
2018-02-06T01:42:28.457Z,1007.65
2018-02-06T01:43:28.522Z,1007.57
2018-02-06T01:44:28.590Z,1007.53
2018-02-06T01:45:28.656Z,1007.50
2018-02-06T01:46:28.718Z,1007.46
2018-02-06T01:47:28.784Z,1007.44
2018-02-06T01:48:28.850Z,1007.44
2018-02-06T01:49:28.914Z,1007.48
2018-02-06T01:50:28.980Z,1007.43
2018-02-06T01:51:29.046Z,1007.42
2018-02-06T01:52:29.110Z,1007.36
2018-02-06T01:53:29.176Z,1007.33
2018-02-06T01:54:29.241Z,1007.29
2018-02-06T01:55:29.307Z,1007.28
2018-02-06T01:56:29.372Z,1007.29
2018-02-06T01:57:29.438Z,1007.26
2018-02-06T01:58:29.502Z,1007.24
2018-02-06T01:59:29.568Z,1007.24
2018-02-06T02:00:29.633Z,1007.15
2018-02-06T02:01:29.698Z,1007.23
2018-02-06T02:02:29.764Z,1007.18
2018-02-06T02:03:29.828Z,1007.16
2018-02-06T02:04:29.894Z,1007.13
2018-02-06T02:05:29.960Z,1007.12
2018-02-06T02:06:30.024Z,1007.07
2018-02-06T02:07:30.090Z,1007.03
2018-02-06T02:08:30.157Z,1007.06
2018-02-06T02:09:30.221Z,1007.07
2018-02-06T02:10:30.286Z,1007.05
2018-02-06T02:11:30.350Z,1007.05
2018-02-06T02:12:30.416Z,1007.01
2018-02-06T02:13:30.481Z,1007.07
2018-02-06T02:14:30.547Z,1007.04
2018-02-06T02:15:30.612Z,1007.05
2018-02-06T02:16:30.678Z,1007.05
2018-02-06T02:17:30.743Z,1007.00
2018-02-06T02:18:30.806Z,1007.02
2018-02-06T02:19:30.873Z,1007.00
2018-02-06T02:20:30.939Z,1006.96
2018-02-06T02:21:31.010Z,1006.94
2018-02-06T02:22:31.068Z,1006.97
2018-02-06T02:23:31.135Z,1006.91
2018-02-06T02:24:31.199Z,1006.89
2018-02-06T02:25:31.272Z,1006.87
2018-02-06T02:26:31.329Z,1006.85
2018-02-06T02:27:31.396Z,1006.88
2018-02-06T02:28:31.460Z,1006.87
2018-02-06T02:29:31.526Z,1006.88
2018-02-06T02:30:31.591Z,1006.89
2018-02-06T02:31:31.656Z,1006.87
2018-02-06T02:32:31.722Z,1006.89
2018-02-06T02:33:31.788Z,1006.89
2018-02-06T02:34:31.852Z,1006.87
2018-02-06T02:35:31.918Z,1006.84
2018-02-06T02:36:31.983Z,1006.81
2018-02-06T02:37:32.054Z,1006.82
2018-02-06T02:38:32.114Z,1006.85
2018-02-06T02:39:32.179Z,1006.79
2018-02-06T02:40:32.244Z,1006.80
2018-02-06T02:41:32.311Z,1006.82
2018-02-06T04:38:39.958Z,1005.58
2018-02-06T04:39:40.023Z,1005.57
2018-02-06T04:40:40.091Z,1005.58
2018-02-06T04:41:40.156Z,1005.57
2018-02-06T04:42:40.221Z,1005.55
2018-02-06T04:43:40.286Z,1005.52
2018-02-06T04:44:40.352Z,1005.50
2018-02-06T04:45:40.418Z,1005.53
2018-02-06T04:46:40.483Z,1005.51
2018-02-06T04:47:40.552Z,1005.48
2018-02-06T04:48:40.617Z,1005.47
2018-02-06T04:49:40.683Z,1005.48
2018-02-06T04:50:40.748Z,1005.44
2018-02-06T04:51:40.813Z,1005.44
2018-02-06T04:52:40.880Z,1005.41
2018-02-06T04:53:40.946Z,1005.41
2018-02-06T04:54:41.011Z,1005.43
2018-02-06T04:55:41.078Z,1005.35
2018-02-06T04:56:41.144Z,1005.37
2018-02-06T04:57:41.210Z,1005.37
2018-02-06T04:58:41.274Z,1005.34
2018-02-06T04:59:41.341Z,1005.34
2018-02-06T05:00:41.408Z,1005.30
2018-02-06T05:01:41.472Z,1005.33
2018-02-06T05:02:41.583Z,1005.33
2018-02-06T05:03:41.605Z,1005.34
2018-02-06T05:04:41.670Z,1005.34
2018-02-06T05:05:41.737Z,1005.34
2018-02-06T05:06:41.802Z,1005.31
2018-02-06T05:07:41.870Z,1005.32
2018-02-06T05:08:41.934Z,1005.31
2018-02-06T05:09:42.004Z,1005.31
2018-02-06T05:10:42.067Z,1005.29
2018-02-06T05:11:42.133Z,1005.26
2018-02-06T05:12:42.202Z,1005.27
2018-02-06T05:13:42.265Z,1005.24
2018-02-06T05:14:42.330Z,1005.22
2018-02-06T05:15:42.397Z,1005.21
2018-02-06T05:16:42.462Z,1005.18
2018-02-06T05:17:42.536Z,1005.17
2018-02-06T05:18:42.595Z,1005.17
2018-02-06T05:19:42.661Z,1005.18
2018-02-06T05:20:42.727Z,1005.16
2018-02-06T05:21:42.792Z,1005.16
2018-02-06T05:22:42.857Z,1005.16
2018-02-06T05:23:42.925Z,1005.12
2018-02-06T05:24:42.994Z,1005.13
2018-02-06T05:25:43.057Z,1005.14
2018-02-06T05:26:43.122Z,1005.14
2018-02-06T05:27:43.188Z,1005.16
2018-02-06T05:28:43.254Z,1005.11
2018-02-06T05:29:43.322Z,1005.12
2018-02-06T05:30:43.386Z,1005.11
2018-02-06T05:31:43.452Z,1005.06
2018-02-06T05:32:43.520Z,1005.03
2018-02-06T05:33:43.585Z,1005.05
2018-02-06T05:34:43.650Z,1005.03
2018-02-06T05:35:43.718Z,1005.00
2018-02-06T05:36:43.784Z,1004.99
2018-02-06T05:37:43.858Z,1004.96
2018-02-06T05:38:43.916Z,1004.91
2018-02-06T05:39:43.982Z,1004.95
2018-02-06T05:40:44.048Z,1004.90
2018-02-06T05:41:44.116Z,1004.85
2018-02-06T05:42:44.180Z,1004.85
2018-02-06T05:43:44.248Z,1004.84
2018-02-06T05:44:44.314Z,1004.82
2018-02-06T05:45:44.380Z,1004.81
2018-02-06T05:46:44.448Z,1004.82
2018-02-06T05:47:44.513Z,1004.84
2018-02-06T05:48:44.579Z,1004.81
2018-02-06T05:49:44.645Z,1004.75
2018-02-06T05:50:44.712Z,1004.74
2018-02-06T05:51:44.778Z,1004.74
2018-02-06T05:52:44.844Z,1004.74
2018-02-06T05:53:44.909Z,1004.76
2018-02-06T05:54:44.975Z,1004.73
2018-02-06T05:55:45.044Z,1004.76
2018-02-06T05:56:45.108Z,1004.71
2018-02-06T05:57:45.177Z,1004.69
2018-02-06T05:58:45.241Z,1004.66
2018-02-06T05:59:45.307Z,1004.67
2018-02-06T06:00:45.376Z,1004.65
2018-02-06T06:01:45.441Z,1004.65
2018-02-06T06:02:45.506Z,1004.64
2018-02-06T06:03:45.572Z,1004.67
2018-02-06T06:04:45.640Z,1004.65
2018-02-06T06:05:45.706Z,1004.67
2018-02-06T06:06:45.771Z,1004.68
2018-02-06T06:07:45.836Z,1004.67
2018-02-06T06:08:45.936Z,1004.63
2018-02-06T06:09:45.970Z,1004.62
2018-02-06T06:10:46.034Z,1004.63
2018-02-06T06:11:46.102Z,1004.66
2018-02-06T06:12:46.170Z,1004.64
2018-02-06T06:13:46.234Z,1004.67
2018-02-06T06:14:46.301Z,1004.68
2018-02-06T06:15:46.367Z,1004.75
2018-02-06T06:16:46.433Z,1004.71
2018-02-06T06:17:46.499Z,1004.71
2018-02-06T06:18:46.564Z,1004.72
2018-02-06T06:19:46.632Z,1004.72
2018-02-06T06:20:46.698Z,1004.71
2018-02-06T06:21:46.764Z,1004.70
2018-02-06T06:22:46.828Z,1004.73
2018-02-06T06:23:46.894Z,1004.71
2018-02-06T06:24:46.961Z,1004.73
2018-02-06T06:25:47.028Z,1004.75
2018-02-06T06:26:47.093Z,1004.71
2018-02-06T06:27:47.160Z,1004.73
2018-02-06T06:28:47.225Z,1004.71
2018-02-06T06:29:47.292Z,1004.73
2018-02-06T06:30:47.360Z,1004.72
2018-02-06T06:31:47.424Z,1004.74
2018-02-06T06:32:47.490Z,1004.75
2018-02-06T06:33:47.568Z,1004.69
2018-02-06T06:34:47.630Z,1004.68
2018-02-06T06:35:47.690Z,1004.67
2018-02-06T06:36:47.758Z,1004.70
2018-02-06T06:37:47.826Z,1004.67
2018-02-06T06:38:47.887Z,1004.63
2018-02-06T06:39:47.954Z,1004.65
2018-02-06T06:40:48.020Z,1004.65
2018-02-06T06:41:48.088Z,1004.63
2018-02-06T06:42:48.153Z,1004.64
2018-02-06T06:43:48.218Z,1004.62
2018-02-06T06:44:48.285Z,1004.65
2018-02-06T06:45:48.351Z,1004.58
2018-02-06T06:46:48.416Z,1004.60
2018-02-06T06:47:48.484Z,1004.63
2018-02-06T06:48:48.550Z,1004.62
2018-02-06T06:49:48.616Z,1004.64
2018-02-06T06:50:48.682Z,1004.59
2018-02-06T06:51:48.749Z,1004.59
2018-02-06T06:52:48.815Z,1004.59
2018-02-06T06:53:48.881Z,1004.55
2018-02-06T06:54:48.948Z,1004.55
2018-02-06T06:55:49.014Z,1004.53
2018-02-06T06:56:49.079Z,1004.50
2018-02-06T06:57:49.150Z,1004.50
2018-02-06T06:58:49.212Z,1004.51
2018-02-06T06:59:49.278Z,1004.54
2018-02-06T07:00:49.345Z,1004.49
2018-02-06T07:01:49.411Z,1004.49
2018-02-06T07:02:49.478Z,1004.50
2018-02-06T07:03:49.543Z,1004.48
2018-02-06T07:04:49.609Z,1004.45
2018-02-06T07:29:35.015Z,1004.12
2018-02-06T07:30:35.586Z,1004.13
2018-02-06T07:31:35.812Z,1004.09
2018-02-06T07:32:35.183Z,1004.08
2018-02-06T07:33:35.239Z,1004.04
2018-02-06T07:34:40.303Z,1004.07
2018-02-06T07:35:35.351Z,1004.07
2018-02-06T07:36:35.419Z,1004.03
2018-02-06T07:37:35.905Z,1003.96
2018-02-06T07:38:35.522Z,1003.97
2018-02-06T07:39:35.578Z,1004.01
2018-02-06T07:40:35.634Z,1003.98
2018-02-06T07:41:35.690Z,1003.98
2018-02-06T07:42:35.747Z,1003.97
2018-02-06T07:43:36.405Z,1003.93
2018-02-06T07:44:35.858Z,1003.96
2018-02-06T07:45:35.921Z,1003.94
2018-02-06T07:46:39.850Z,1003.93
2018-02-06T07:47:36.623Z,1003.95
2018-02-06T07:48:36.698Z,1003.97
2018-02-06T07:49:36.136Z,1003.93
2018-02-06T07:50:36.190Z,1003.95
2018-02-06T07:51:36.244Z,1003.95
2018-02-06T07:52:36.299Z,1003.96
2018-02-06T07:53:36.355Z,1003.94
2018-02-06T07:54:37.009Z,1003.93
2018-02-06T07:55:37.424Z,1003.91
2018-02-06T07:56:36.762Z,1003.92
2018-02-06T07:57:36.639Z,1003.91
2018-02-06T07:58:36.632Z,1003.89
2018-02-06T07:59:36.681Z,1003.87
2018-02-06T08:00:36.736Z,1003.87
2018-02-06T08:01:37.466Z,1003.89
2018-02-06T08:02:36.846Z,1003.84
2018-02-06T08:03:36.898Z,1003.88
2018-02-06T08:04:36.953Z,1003.90
2018-02-06T08:05:37.012Z,1003.85
2018-02-06T08:06:37.062Z,1003.88
2018-02-06T08:07:37.129Z,1003.87
2018-02-06T08:08:37.168Z,1003.88
2018-02-06T08:09:37.224Z,1003.85
2018-02-06T08:10:37.956Z,1003.85
2018-02-06T08:11:37.341Z,1003.89
2018-02-06T08:12:37.384Z,1003.92
2018-02-06T08:13:37.438Z,1003.86
2018-02-06T08:14:37.642Z,1003.89
2018-02-06T08:15:37.544Z,1003.88
2018-02-06T08:16:37.600Z,1003.85
2018-02-06T08:17:37.652Z,1003.87
2018-02-06T08:18:37.706Z,1003.86
2018-02-06T08:19:37.758Z,1003.86
2018-02-06T08:20:37.813Z,1003.82
2018-02-06T08:21:37.867Z,1003.79
2018-02-06T08:22:37.922Z,1003.77
2018-02-06T08:23:38.939Z,1003.78
2018-02-06T08:24:38.028Z,1003.77
2018-02-06T08:25:38.081Z,1003.76
2018-02-06T08:26:38.134Z,1003.76
2018-02-06T08:27:38.187Z,1003.78
2018-02-06T08:28:38.240Z,1003.78
2018-02-06T08:29:38.295Z,1003.77
2018-02-06T08:30:38.348Z,1003.75
2018-02-06T08:31:38.400Z,1003.74
2018-02-06T08:32:38.455Z,1003.74
2018-02-06T08:33:38.536Z,1003.75
2018-02-06T08:34:38.562Z,1003.73
2018-02-06T08:35:38.614Z,1003.76
2018-02-06T08:36:38.670Z,1003.76
2018-02-06T08:37:38.721Z,1003.74
2018-02-06T08:38:38.775Z,1003.72
2018-02-06T08:39:38.827Z,1003.72
2018-02-06T08:40:39.251Z,1003.74
2018-02-06T08:41:38.935Z,1003.75
2018-02-06T08:42:38.986Z,1003.74
2018-02-06T08:43:39.039Z,1003.73
2018-02-06T08:44:39.093Z,1003.71
2018-02-06T08:45:39.147Z,1003.73
2018-02-06T08:46:39.199Z,1003.73
2018-02-06T08:47:39.253Z,1003.73
2018-02-06T08:48:39.312Z,1003.71
2018-02-06T08:49:39.359Z,1003.71
2018-02-06T08:50:39.416Z,1003.72
2018-02-06T08:51:39.466Z,1003.73
2018-02-06T08:52:39.517Z,1003.75
2018-02-06T08:53:39.572Z,1003.72
2018-02-06T08:54:39.624Z,1003.75
2018-02-06T08:55:39.678Z,1003.79
2018-02-06T08:56:39.732Z,1003.76
2018-02-06T08:57:39.785Z,1003.75
2018-02-06T08:58:39.838Z,1003.75
2018-02-06T08:59:40.049Z,1003.76
2018-02-06T09:00:39.943Z,1003.73
2018-02-06T09:01:39.999Z,1003.77
2018-02-06T09:02:40.051Z,1003.71
2018-02-06T09:03:40.108Z,1003.70
2018-02-06T09:04:40.157Z,1003.66
2018-02-06T09:05:40.222Z,1003.66
2018-02-06T09:06:40.414Z,1003.66
2018-02-06T09:07:40.317Z,1003.67
2018-02-06T09:08:40.369Z,1003.66
2018-02-06T09:09:40.423Z,1003.67
2018-02-06T09:10:40.478Z,1003.69
2018-02-06T09:11:40.531Z,1003.63
2018-02-06T09:12:40.584Z,1003.61
2018-02-06T09:13:40.637Z,1003.65
2018-02-06T09:14:41.185Z,1003.63
2018-02-06T09:15:41.357Z,1003.60
2018-02-06T09:16:40.799Z,1003.65
2018-02-06T09:17:40.852Z,1003.61
2018-02-06T09:18:40.907Z,1003.61
2018-02-06T09:19:40.958Z,1003.64
2018-02-06T09:20:41.013Z,1003.65
2018-02-06T09:21:41.072Z,1003.64
2018-02-06T09:22:41.119Z,1003.61
2018-02-06T09:23:41.172Z,1003.59
2018-02-06T09:24:41.477Z,1003.60
2018-02-06T09:25:41.766Z,1003.60
2018-02-06T09:26:41.334Z,1003.59
2018-02-06T09:27:41.387Z,1003.60
2018-02-06T09:28:41.493Z,1003.58
2018-02-06T09:29:41.495Z,1003.59
2018-02-06T09:31:14.759Z,1003.52
2018-02-06T09:31:41.603Z,1003.53
2018-02-06T09:32:41.656Z,1003.52
2018-02-06T09:33:41.712Z,1003.55
2018-02-06T09:34:41.763Z,1003.52
2018-02-06T09:35:42.066Z,1003.51
2018-02-06T09:36:41.870Z,1003.49
2018-02-06T09:37:41.923Z,1003.50
2018-02-06T09:38:42.011Z,1003.50
2018-02-06T09:39:42.035Z,1003.48
2018-02-06T09:40:42.085Z,1003.47
2018-02-06T09:42:42.190Z,1003.48
2018-02-06T09:43:42.246Z,1003.48
2018-02-06T09:44:42.297Z,1003.47
2018-02-06T09:45:42.353Z,1003.46
2018-02-06T09:46:42.405Z,1003.42
2018-02-06T09:47:42.460Z,1003.40
2018-02-06T09:48:42.512Z,1003.43
2018-02-06T09:49:42.566Z,1003.40
2018-02-06T09:50:42.618Z,1003.39
2018-02-06T09:51:42.672Z,1003.41
2018-02-06T09:52:42.724Z,1003.38
2018-02-06T09:53:42.778Z,1003.41
2018-02-06T09:54:42.832Z,1003.43
2018-02-06T09:55:42.900Z,1003.44
2018-02-06T09:56:42.938Z,1003.43
2018-02-06T09:57:42.992Z,1003.38
2018-02-06T09:58:43.046Z,1003.40
2018-02-06T09:59:43.097Z,1003.40
2018-02-06T10:00:43.254Z,1003.40
2018-02-06T10:01:43.205Z,1003.44
2018-02-06T10:02:43.259Z,1003.43
2018-02-06T10:03:43.311Z,1003.41
2018-02-06T10:04:43.365Z,1003.40
2018-02-06T10:05:43.430Z,1003.41
2018-02-06T10:06:43.474Z,1003.39
2018-02-06T10:07:43.526Z,1003.34
2018-02-06T10:08:43.579Z,1003.34
2018-02-06T10:09:43.633Z,1003.36
2018-02-06T10:10:43.688Z,1003.33
2018-02-06T10:11:43.739Z,1003.36
2018-02-06T10:12:43.793Z,1003.27
2018-02-06T10:13:43.849Z,1003.32
2018-02-06T10:14:44.504Z,1003.29
2018-02-06T10:15:43.968Z,1003.28
2018-02-06T10:16:44.008Z,1003.27
2018-02-06T10:17:44.061Z,1003.25
2018-02-06T10:18:44.114Z,1003.22
2018-02-06T10:19:44.168Z,1003.21
2018-02-06T10:20:44.223Z,1003.22
2018-02-06T10:21:44.584Z,1003.22
2018-02-06T10:22:44.329Z,1003.20
2018-02-06T10:23:44.382Z,1003.17
2018-02-06T10:25:17.646Z,1003.16
2018-02-06T10:25:44.489Z,1003.17
2018-02-06T10:26:44.542Z,1003.22
2018-02-06T10:27:44.595Z,1003.22
2018-02-06T10:28:44.654Z,1003.20
2018-02-06T10:29:44.702Z,1003.16
2018-02-06T10:30:44.758Z,1003.17
2018-02-06T10:31:44.808Z,1003.17
2018-02-06T10:32:44.867Z,1003.22
2018-02-06T10:33:44.916Z,1003.18
2018-02-06T10:34:44.970Z,1003.19
2018-02-06T10:35:45.028Z,1003.15
2018-02-06T10:36:45.079Z,1003.11
2018-02-06T10:37:45.130Z,1003.14
2018-02-06T10:38:45.187Z,1003.13
2018-02-06T10:39:45.237Z,1003.15
2018-02-06T10:40:45.292Z,1003.14
2018-02-06T10:41:45.344Z,1003.16
2018-02-06T10:42:45.398Z,1003.19
2018-02-06T10:43:45.454Z,1003.16
2018-02-06T10:44:46.240Z,1003.15
2018-02-06T10:45:46.265Z,1003.13
2018-02-06T10:46:45.637Z,1003.11
2018-02-06T10:47:45.664Z,1003.12
2018-02-06T10:48:45.718Z,1003.04
2018-02-06T10:49:45.772Z,1003.06
2018-02-06T10:50:45.825Z,1003.04
2018-02-06T10:51:45.879Z,1003.03
2018-02-06T10:52:45.932Z,1003.00
2018-02-06T10:53:45.986Z,1002.97
2018-02-06T10:54:46.042Z,1003.00
2018-02-06T10:55:46.091Z,1002.94
2018-02-06T10:56:46.145Z,1002.98
2018-02-06T10:57:46.199Z,1002.96
2018-02-06T10:58:46.254Z,1002.93
2018-02-06T10:59:46.308Z,1002.92
2018-02-06T11:00:46.361Z,1002.92
2018-02-06T11:01:46.413Z,1002.94
2018-02-06T11:02:46.466Z,1002.95
2018-02-06T11:03:46.519Z,1002.89
2018-02-06T11:04:46.573Z,1002.91
2018-02-06T11:05:46.626Z,1002.87
2018-02-06T11:06:46.680Z,1002.85
2018-02-06T11:07:46.732Z,1002.87
2018-02-06T11:08:46.785Z,1002.85
2018-02-06T11:09:46.840Z,1002.82
2018-02-06T11:10:46.899Z,1002.87
2018-02-06T11:11:46.945Z,1002.79
2018-02-06T11:12:47.051Z,1002.82
2018-02-06T11:13:47.053Z,1002.78
2018-02-06T11:14:47.110Z,1002.84
2018-02-06T11:15:47.161Z,1002.77
2018-02-06T11:16:47.212Z,1002.79
2018-02-06T11:17:47.267Z,1002.78
2018-02-06T11:18:47.470Z,1002.74
2018-02-06T11:19:47.372Z,1002.78
2018-02-06T11:20:47.425Z,1002.72
2018-02-06T11:21:47.479Z,1002.76
2018-02-06T11:22:47.533Z,1002.76
2018-02-06T11:23:47.585Z,1002.74
2018-02-06T11:24:47.939Z,1002.81
2018-02-06T11:25:47.692Z,1002.75
2018-02-06T11:26:47.746Z,1002.77
2018-02-06T11:27:47.798Z,1002.75
2018-02-06T11:28:47.852Z,1002.72
2018-02-06T11:29:47.906Z,1002.70
2018-02-06T11:30:47.959Z,1002.71
2018-02-06T11:31:48.012Z,1002.70
2018-02-06T11:32:48.065Z,1002.73
2018-02-06T11:33:48.118Z,1002.69
2018-02-06T11:34:48.172Z,1002.65
2018-02-06T11:35:48.230Z,1002.68
2018-02-06T11:36:48.286Z,1002.64
2018-02-06T11:37:48.332Z,1002.64
2018-02-06T11:38:48.388Z,1002.63
2018-02-06T11:39:48.438Z,1002.65
2018-02-06T11:40:48.491Z,1002.64
2018-02-06T11:41:48.546Z,1002.64
2018-02-06T11:42:48.598Z,1002.61
2018-02-06T11:43:48.651Z,1002.60
2018-02-06T11:44:48.706Z,1002.64
2018-02-06T11:45:48.759Z,1002.58
2018-02-06T11:46:48.811Z,1002.55
2018-02-06T11:47:48.864Z,1002.49
2018-02-06T11:48:48.918Z,1002.52
2018-02-06T11:49:48.972Z,1002.50
2018-02-06T11:51:22.235Z,1002.53
2018-02-06T11:51:49.077Z,1002.49
2018-02-06T11:52:49.131Z,1002.50
2018-02-06T11:53:49.434Z,1002.49
2018-02-06T11:54:49.238Z,1002.41
2018-02-06T11:55:49.295Z,1002.41
2018-02-06T11:56:49.344Z,1002.41
2018-02-06T11:57:49.398Z,1002.39
2018-02-06T11:58:50.150Z,1002.42
2018-02-06T11:59:49.503Z,1002.40
2018-02-06T12:00:49.557Z,1002.42
2018-02-06T12:01:49.610Z,1002.37
2018-02-06T12:02:49.665Z,1002.38
2018-02-06T12:03:49.716Z,1002.39
2018-02-06T12:04:49.770Z,1002.36
2018-02-06T12:05:49.825Z,1002.38
2018-02-06T12:06:49.877Z,1002.36
2018-02-06T12:07:49.932Z,1002.33
2018-02-06T12:08:49.984Z,1002.31
2018-02-06T12:09:50.037Z,1002.32
2018-02-06T12:10:50.147Z,1002.29
2018-02-06T12:11:50.144Z,1002.25
2018-02-06T12:12:50.199Z,1002.27
2018-02-06T12:13:50.251Z,1002.24
2018-02-06T12:14:50.304Z,1002.25
2018-02-06T12:15:50.357Z,1002.25
2018-02-06T12:16:50.410Z,1002.24
2018-02-06T12:18:23.681Z,1002.22
2018-02-06T12:18:50.518Z,1002.23
2018-02-06T12:19:50.570Z,1002.24
2018-02-06T12:20:50.624Z,1002.21
2018-02-06T12:21:50.728Z,1002.19
2018-02-06T12:22:51.259Z,1002.20
2018-02-06T12:23:50.784Z,1002.16
2018-02-06T12:24:50.837Z,1002.12
2018-02-06T12:25:50.891Z,1002.11
2018-02-06T12:26:51.096Z,1002.13
2018-02-06T12:27:50.998Z,1002.09
2018-02-06T12:28:51.052Z,1002.07
2018-02-06T12:29:51.106Z,1002.08
2018-02-06T12:30:51.161Z,1002.04
2018-02-06T12:33:34.822Z,1002.01
2018-02-06T12:34:34.876Z,1002.00
2018-02-06T12:35:34.930Z,1002.05
2018-02-06T12:36:34.985Z,1002.02
2018-02-06T12:37:35.244Z,1001.97
2018-02-06T12:38:35.091Z,1002.03
2018-02-06T12:39:35.146Z,1002.02
2018-02-06T12:40:35.199Z,1002.01
2018-02-06T12:41:35.252Z,1002.02
2018-02-06T12:42:35.306Z,1002.00
2018-02-06T12:43:35.363Z,1002.01
2018-02-06T12:44:35.414Z,1002.00
2018-02-06T12:45:35.468Z,1001.99
2018-02-06T12:46:35.522Z,1001.94
2018-02-06T12:47:35.622Z,1001.96
2018-02-06T12:48:36.204Z,1001.90
2018-02-06T12:49:35.685Z,1001.90
2018-02-06T12:50:35.737Z,1001.91
2018-02-06T12:51:35.792Z,1001.86
2018-02-06T12:52:35.849Z,1001.91
2018-02-06T12:53:35.913Z,1001.92
2018-02-06T12:54:35.952Z,1001.89
2018-02-06T12:55:36.007Z,1001.88
2018-02-06T12:56:36.061Z,1001.87
2018-02-06T12:57:36.114Z,1001.88
2018-02-06T12:58:36.168Z,1001.85
2018-02-06T12:59:36.492Z,1001.84
2018-02-06T13:00:37.078Z,1001.81
2018-02-06T13:01:36.331Z,1001.82
2018-02-06T13:02:36.384Z,1001.77
2018-02-06T13:03:36.440Z,1001.76
2018-02-06T13:05:09.703Z,1001.74
2018-02-06T13:05:36.548Z,1001.75
2018-02-06T13:06:36.601Z,1001.71
2018-02-06T13:07:37.232Z,1001.67
2018-02-06T13:08:36.707Z,1001.69
2018-02-06T13:09:36.762Z,1001.69
2018-02-06T13:10:36.816Z,1001.66
2018-02-06T13:12:36.924Z,1001.61
2018-02-06T13:13:36.976Z,1001.61
2018-02-06T13:14:37.030Z,1001.64
2018-02-06T13:15:37.619Z,1001.62
2018-02-06T13:16:37.177Z,1001.62
2018-02-06T13:17:37.341Z,1001.58
2018-02-06T13:18:37.244Z,1001.57
2018-02-06T13:19:37.298Z,1001.58
2018-02-06T13:20:37.351Z,1001.60
2018-02-06T13:21:37.444Z,1001.64
2018-02-06T13:22:37.659Z,1001.58
2018-02-06T13:23:37.513Z,1001.57
2018-02-06T13:24:37.567Z,1001.57
2018-02-06T13:25:37.619Z,1001.55
2018-02-06T13:26:37.675Z,1001.55
2018-02-06T13:27:37.729Z,1001.50
2018-02-06T13:28:37.781Z,1001.47
2018-02-06T13:29:37.833Z,1001.47
2018-02-06T13:31:11.099Z,1001.42
2018-02-06T13:31:37.942Z,1001.44
2018-02-06T13:33:11.212Z,1001.41
2018-02-06T13:33:38.049Z,1001.37
2018-02-06T13:34:38.103Z,1001.36
2018-02-06T13:35:38.158Z,1001.37
2018-02-06T13:36:38.210Z,1001.33
2018-02-06T13:37:38.263Z,1001.36
2018-02-06T13:38:38.317Z,1001.35
2018-02-06T13:39:38.389Z,1001.36
2018-02-06T13:40:38.424Z,1001.33
2018-02-06T13:42:11.688Z,1001.30
2018-02-06T13:42:38.531Z,1001.36
2018-02-06T13:43:38.585Z,1001.32
2018-02-06T13:44:38.640Z,1001.29
2018-02-06T13:45:38.691Z,1001.27
2018-02-06T13:46:38.746Z,1001.28
2018-02-06T13:47:38.799Z,1001.32
2018-02-06T13:48:38.853Z,1001.28
2018-02-06T13:49:38.906Z,1001.27
2018-02-06T13:50:38.960Z,1001.26
2018-02-06T13:51:39.013Z,1001.25
2018-02-06T13:52:39.068Z,1001.17
2018-02-06T13:55:55.939Z,1001.20
2018-02-06T13:56:22.800Z,1001.20
2018-02-06T13:57:22.837Z,1001.16
2018-02-06T13:58:23.041Z,1001.17
2018-02-06T13:59:22.944Z,1001.16
2018-02-06T14:00:22.996Z,1001.17
2018-02-06T14:01:23.060Z,1001.16
2018-02-06T14:02:23.109Z,1001.16
2018-02-06T14:03:23.157Z,1001.13
2018-02-06T14:04:23.461Z,1001.13
2018-02-06T14:05:23.265Z,1001.15
2018-02-06T14:06:23.318Z,1001.15
2018-02-06T14:07:23.373Z,1001.10
2018-02-06T14:08:23.426Z,1001.12
2018-02-06T14:09:23.479Z,1001.11
2018-02-06T14:10:23.533Z,1001.13
2018-02-06T14:11:23.585Z,1001.09
2018-02-06T14:12:23.640Z,1001.13
2018-02-06T14:13:23.693Z,1001.14
2018-02-06T14:14:23.747Z,1001.14
2018-02-06T14:15:23.799Z,1001.16
2018-02-06T14:16:23.853Z,1001.14
2018-02-06T14:17:23.908Z,1001.10
2018-02-06T14:18:23.961Z,1001.11
2018-02-06T14:19:24.017Z,1001.12
2018-02-06T14:20:24.067Z,1001.10
2018-02-06T14:21:24.120Z,1001.06
2018-02-06T14:22:24.175Z,1001.07
2018-02-06T14:23:24.227Z,1001.07
2018-02-06T14:24:24.281Z,1001.02
2018-02-06T14:25:24.335Z,1001.04
2018-02-06T14:26:24.389Z,1001.07
2018-02-06T14:27:24.450Z,1001.11
2018-02-06T14:28:24.495Z,1001.05
2018-02-06T14:29:24.552Z,1001.09
2018-02-06T14:30:24.646Z,1001.06
2018-02-06T14:31:24.656Z,1001.06